sensor_id;sensor_type;location;lat;lon;timestamp;temperature;humidity
54168;DHT22;40072;50.958;3.592;2023-01-13T00:02:01;9.10;99.90
54168;DHT22;40072;50.958;3.592;2023-01-13T00:04:27;9.10;99.90
54168;DHT22;40072;50.958;3.592;2023-01-13T00:06:53;9.00;99.90
54168;DHT22;40072;50.958;3.592;2023-01-13T00:09:18;9.00;99.90
54168;DHT22;40072;50.958;3.592;2023-01-13T00:11:44;9.00;99.90
54168;DHT22;40072;50.958;3.592;2023-01-13T00:14:10;8.90;99.90
54168;DHT22;40072;50.958;3.592;2023-01-13T00:16:35;8.90;99.90
54168;DHT22;40072;50.958;3.592;2023-01-13T00:19:01;8.90;99.90
54168;DHT22;40072;50.958;3.592;2023-01-13T00:21:27;8.90;99.90
54168;DHT22;40072;50.958;3.592;2023-01-13T00:23:53;8.80;99.90
54168;DHT22;40072;50.958;3.592;2023-01-13T00:26:25;8.80;99.90
54168;DHT22;40072;50.958;3.592;2023-01-13T00:28:59;8.80;99.90
54168;DHT22;40072;50.958;3.592;2023-01-13T00:31:26;8.80;99.90
54168;DHT22;40072;50.958;3.592;2023-01-13T00:33:54;8.80;99.90
54168;DHT22;40072;50.958;3.592;2023-01-13T00:36:20;8.90;99.90
54168;DHT22;40072;50.958;3.592;2023-01-13T00:38:46;8.80;99.90
54168;DHT22;40072;50.958;3.592;2023-01-13T00:41:17;8.80;99.90
54168;DHT22;40072;50.958;3.592;2023-01-13T00:43:44;8.80;99.90
54168;DHT22;40072;50.958;3.592;2023-01-13T00:46:11;8.70;99.90
54168;DHT22;40072;50.958;3.592;2023-01-13T00:48:37;8.80;99.90
54168;DHT22;40072;50.958;3.592;2023-01-13T00:51:14;8.80;99.90
54168;DHT22;40072;50.958;3.592;2023-01-13T00:53:43;8.80;99.90
54168;DHT22;40072;50.958;3.592;2023-01-13T00:56:12;8.80;99.90
54168;DHT22;40072;50.958;3.592;2023-01-13T00:58:39;8.80;99.90
54168;DHT22;40072;50.958;3.592;2023-01-13T01:01:07;8.80;99.90
54168;DHT22;40072;50.958;3.592;2023-01-13T01:03:34;8.80;99.90
54168;DHT22;40072;50.958;3.592;2023-01-13T01:06:14;8.80;99.90
54168;DHT22;40072;50.958;3.592;2023-01-13T01:08:41;8.80;99.90
54168;DHT22;40072;50.958;3.592;2023-01-13T01:11:10;8.70;99.90
54168;DHT22;40072;50.958;3.592;2023-01-13T01:13:36;8.70;99.90
54168;DHT22;40072;50.958;3.592;2023-01-13T01:16:07;8.60;99.90
54168;DHT22;40072;50.958;3.592;2023-01-13T01:18:35;8.60;99.90
54168;DHT22;40072;50.958;3.592;2023-01-13T01:21:02;8.60;99.90
54168;DHT22;40072;50.958;3.592;2023-01-13T01:23:28;8.50;99.90
54168;DHT22;40072;50.958;3.592;2023-01-13T01:25:58;8.50;99.90
54168;DHT22;40072;50.958;3.592;2023-01-13T01:28:24;8.50;99.90
54168;DHT22;40072;50.958;3.592;2023-01-13T01:30:50;8.40;99.90
54168;DHT22;40072;50.958;3.592;2023-01-13T01:33:15;8.40;99.90
54168;DHT22;40072;50.958;3.592;2023-01-13T01:35:41;8.40;99.90
54168;DHT22;40072;50.958;3.592;2023-01-13T01:38:07;8.40;99.90
54168;DHT22;40072;50.958;3.592;2023-01-13T01:40:34;8.40;99.90
54168;DHT22;40072;50.958;3.592;2023-01-13T01:43:00;8.50;99.90
54168;DHT22;40072;50.958;3.592;2023-01-13T01:45:49;8.50;99.90
54168;DHT22;40072;50.958;3.592;2023-01-13T01:48:17;8.50;99.90
54168;DHT22;40072;50.958;3.592;2023-01-13T01:50:42;8.40;99.90
54168;DHT22;40072;50.958;3.592;2023-01-13T01:53:11;8.40;99.90
54168;DHT22;40072;50.958;3.592;2023-01-13T01:55:39;8.50;99.90
54168;DHT22;40072;50.958;3.592;2023-01-13T02:00:30;8.50;99.90
54168;DHT22;40072;50.958;3.592;2023-01-13T02:02:56;8.50;99.90
54168;DHT22;40072;50.958;3.592;2023-01-13T02:05:23;8.60;99.90
54168;DHT22;40072;50.958;3.592;2023-01-13T02:07:52;8.60;99.90
54168;DHT22;40072;50.958;3.592;2023-01-13T02:10:21;8.50;99.90
54168;DHT22;40072;50.958;3.592;2023-01-13T02:12:48;8.40;99.90
54168;DHT22;40072;50.958;3.592;2023-01-13T02:15:17;8.30;99.90
54168;DHT22;40072;50.958;3.592;2023-01-13T02:32:33;7.90;99.90
54168;DHT22;40072;50.958;3.592;2023-01-13T02:37:47;7.80;99.90
54168;DHT22;40072;50.958;3.592;2023-01-13T02:40:33;7.70;99.90
54168;DHT22;40072;50.958;3.592;2023-01-13T02:43:22;7.60;99.90
54168;DHT22;40072;50.958;3.592;2023-01-13T02:46:19;7.70;99.90
54168;DHT22;40072;50.958;3.592;2023-01-13T02:48:49;7.70;99.90
54168;DHT22;40072;50.958;3.592;2023-01-13T02:51:19;7.70;99.90
54168;DHT22;40072;50.958;3.592;2023-01-13T02:53:54;7.80;99.90
54168;DHT22;40072;50.958;3.592;2023-01-13T02:56:22;7.80;99.90
54168;DHT22;40072;50.958;3.592;2023-01-13T02:58:49;7.80;99.90
54168;DHT22;40072;50.958;3.592;2023-01-13T03:01:15;7.80;99.90
54168;DHT22;40072;50.958;3.592;2023-01-13T03:03:42;7.80;99.90
54168;DHT22;40072;50.958;3.592;2023-01-13T03:11:12;7.70;99.90
54168;DHT22;40072;50.958;3.592;2023-01-13T03:14:09;7.70;99.90
54168;DHT22;40072;50.958;3.592;2023-01-13T03:27:29;7.60;99.90
54168;DHT22;40072;50.958;3.592;2023-01-13T03:32:39;7.70;99.90
54168;DHT22;40072;50.958;3.592;2023-01-13T03:37:36;7.70;99.90
54168;DHT22;40072;50.958;3.592;2023-01-13T03:40:25;7.70;99.90
54168;DHT22;40072;50.958;3.592;2023-01-13T03:43:02;7.70;99.90
54168;DHT22;40072;50.958;3.592;2023-01-13T03:45:51;7.70;99.90
54168;DHT22;40072;50.958;3.592;2023-01-13T03:48:19;7.70;99.90
54168;DHT22;40072;50.958;3.592;2023-01-13T03:50:51;7.70;99.90
54168;DHT22;40072;50.958;3.592;2023-01-13T03:53:22;7.70;99.90
54168;DHT22;40072;50.958;3.592;2023-01-13T03:55:59;7.70;99.90
54168;DHT22;40072;50.958;3.592;2023-01-13T03:58:30;7.70;99.90
54168;DHT22;40072;50.958;3.592;2023-01-13T04:01:21;7.70;99.90
54168;DHT22;40072;50.958;3.592;2023-01-13T04:09:18;7.70;99.90
54168;DHT22;40072;50.958;3.592;2023-01-13T04:14:39;7.80;99.90
54168;DHT22;40072;50.958;3.592;2023-01-13T04:17:05;7.80;99.90
54168;DHT22;40072;50.958;3.592;2023-01-13T04:19:31;7.80;99.90
54168;DHT22;40072;50.958;3.592;2023-01-13T04:21:58;7.80;99.90
54168;DHT22;40072;50.958;3.592;2023-01-13T04:24:24;7.70;99.90
54168;DHT22;40072;50.958;3.592;2023-01-13T04:26:50;7.70;99.90
54168;DHT22;40072;50.958;3.592;2023-01-13T04:29:16;7.70;99.90
54168;DHT22;40072;50.958;3.592;2023-01-13T04:31:41;7.70;99.90
54168;DHT22;40072;50.958;3.592;2023-01-13T04:34:08;7.70;99.90
54168;DHT22;40072;50.958;3.592;2023-01-13T04:36:34;7.70;99.90
54168;DHT22;40072;50.958;3.592;2023-01-13T04:39:01;7.70;99.90
54168;DHT22;40072;50.958;3.592;2023-01-13T04:41:27;7.70;99.90
54168;DHT22;40072;50.958;3.592;2023-01-13T04:43:52;7.70;99.90
54168;DHT22;40072;50.958;3.592;2023-01-13T04:46:18;7.70;99.90
54168;DHT22;40072;50.958;3.592;2023-01-13T04:48:44;7.70;99.90
54168;DHT22;40072;50.958;3.592;2023-01-13T04:51:09;7.70;99.90
54168;DHT22;40072;50.958;3.592;2023-01-13T04:53:35;7.70;99.90
54168;DHT22;40072;50.958;3.592;2023-01-13T04:56:00;7.70;99.90
54168;DHT22;40072;50.958;3.592;2023-01-13T04:58:26;7.80;99.90
54168;DHT22;40072;50.958;3.592;2023-01-13T05:00:52;7.80;99.90
54168;DHT22;40072;50.958;3.592;2023-01-13T05:03:19;7.80;99.90
54168;DHT22;40072;50.958;3.592;2023-01-13T05:05:44;7.80;99.90
54168;DHT22;40072;50.958;3.592;2023-01-13T05:08:14;7.70;99.90
54168;DHT22;40072;50.958;3.592;2023-01-13T05:10:40;7.70;99.90
54168;DHT22;40072;50.958;3.592;2023-01-13T05:13:07;7.70;99.90
54168;DHT22;40072;50.958;3.592;2023-01-13T05:16:08;7.70;99.90
54168;DHT22;40072;50.958;3.592;2023-01-13T05:18:53;7.60;99.90
54168;DHT22;40072;50.958;3.592;2023-01-13T05:21:18;7.60;99.90
54168;DHT22;40072;50.958;3.592;2023-01-13T05:24:02;7.70;99.90
54168;DHT22;40072;50.958;3.592;2023-01-13T05:26:46;7.60;99.90
54168;DHT22;40072;50.958;3.592;2023-01-13T05:29:12;7.60;99.90
54168;DHT22;40072;50.958;3.592;2023-01-13T05:31:38;7.60;99.90
54168;DHT22;40072;50.958;3.592;2023-01-13T05:34:03;7.70;99.90
54168;DHT22;40072;50.958;3.592;2023-01-13T05:36:29;7.80;99.90
54168;DHT22;40072;50.958;3.592;2023-01-13T05:38:55;7.80;99.90
54168;DHT22;40072;50.958;3.592;2023-01-13T05:41:20;7.90;99.90
54168;DHT22;40072;50.958;3.592;2023-01-13T05:44:04;7.90;99.90
54168;DHT22;40072;50.958;3.592;2023-01-13T05:46:30;7.80;99.90
54168;DHT22;40072;50.958;3.592;2023-01-13T05:48:56;7.80;99.90
54168;DHT22;40072;50.958;3.592;2023-01-13T05:51:21;7.80;99.90
54168;DHT22;40072;50.958;3.592;2023-01-13T05:53:50;7.80;99.90
54168;DHT22;40072;50.958;3.592;2023-01-13T05:56:16;7.80;99.90
54168;DHT22;40072;50.958;3.592;2023-01-13T05:58:42;7.80;99.90
54168;DHT22;40072;50.958;3.592;2023-01-13T06:01:09;7.80;99.90
54168;DHT22;40072;50.958;3.592;2023-01-13T06:03:36;7.70;99.90
54168;DHT22;40072;50.958;3.592;2023-01-13T06:06:02;7.70;99.90
54168;DHT22;40072;50.958;3.592;2023-01-13T06:08:29;7.70;99.90
54168;DHT22;40072;50.958;3.592;2023-01-13T06:10:55;7.80;99.90
54168;DHT22;40072;50.958;3.592;2023-01-13T06:13:22;7.70;99.90
54168;DHT22;40072;50.958;3.592;2023-01-13T06:15:49;7.70;99.90
54168;DHT22;40072;50.958;3.592;2023-01-13T06:18:15;7.70;99.90
54168;DHT22;40072;50.958;3.592;2023-01-13T06:20:41;7.70;99.90
54168;DHT22;40072;50.958;3.592;2023-01-13T06:23:08;7.60;99.90
54168;DHT22;40072;50.958;3.592;2023-01-13T06:28:11;7.70;99.90
54168;DHT22;40072;50.958;3.592;2023-01-13T06:30:41;7.60;99.90
54168;DHT22;40072;50.958;3.592;2023-01-13T06:33:12;7.70;99.90
54168;DHT22;40072;50.958;3.592;2023-01-13T06:35:42;7.70;99.90
54168;DHT22;40072;50.958;3.592;2023-01-13T06:38:11;7.70;99.90
54168;DHT22;40072;50.958;3.592;2023-01-13T06:40:37;7.80;99.90
54168;DHT22;40072;50.958;3.592;2023-01-13T06:43:05;7.80;99.90
54168;DHT22;40072;50.958;3.592;2023-01-13T06:45:46;7.80;99.90
54168;DHT22;40072;50.958;3.592;2023-01-13T06:48:14;7.80;99.90
54168;DHT22;40072;50.958;3.592;2023-01-13T06:50:39;7.80;99.90
54168;DHT22;40072;50.958;3.592;2023-01-13T06:53:06;7.90;99.90
54168;DHT22;40072;50.958;3.592;2023-01-13T06:55:32;7.90;99.90
54168;DHT22;40072;50.958;3.592;2023-01-13T06:57:58;7.80;99.90
54168;DHT22;40072;50.958;3.592;2023-01-13T07:00:25;7.80;99.90
54168;DHT22;40072;50.958;3.592;2023-01-13T07:02:52;7.90;99.90
54168;DHT22;40072;50.958;3.592;2023-01-13T07:05:19;7.80;99.90
54168;DHT22;40072;50.958;3.592;2023-01-13T07:07:45;7.80;99.90
54168;DHT22;40072;50.958;3.592;2023-01-13T07:10:12;7.80;99.90
54168;DHT22;40072;50.958;3.592;2023-01-13T07:12:39;7.90;99.90
54168;DHT22;40072;50.958;3.592;2023-01-13T07:15:27;7.90;99.90
54168;DHT22;40072;50.958;3.592;2023-01-13T07:17:52;7.90;99.90
54168;DHT22;40072;50.958;3.592;2023-01-13T07:20:18;7.90;99.90
54168;DHT22;40072;50.958;3.592;2023-01-13T07:22:44;7.90;99.90
54168;DHT22;40072;50.958;3.592;2023-01-13T07:25:10;7.90;99.90
54168;DHT22;40072;50.958;3.592;2023-01-13T07:27:36;8.00;99.90
54168;DHT22;40072;50.958;3.592;2023-01-13T07:30:03;8.00;99.90
54168;DHT22;40072;50.958;3.592;2023-01-13T07:32:31;8.00;99.90
54168;DHT22;40072;50.958;3.592;2023-01-13T07:34:57;8.00;99.90
54168;DHT22;40072;50.958;3.592;2023-01-13T07:37:30;8.00;99.90
54168;DHT22;40072;50.958;3.592;2023-01-13T07:39:56;8.00;99.90
54168;DHT22;40072;50.958;3.592;2023-01-13T07:42:21;8.00;99.90
54168;DHT22;40072;50.958;3.592;2023-01-13T07:45:06;8.00;99.90
54168;DHT22;40072;50.958;3.592;2023-01-13T07:47:32;8.10;99.90
54168;DHT22;40072;50.958;3.592;2023-01-13T07:49:57;8.10;99.90
54168;DHT22;40072;50.958;3.592;2023-01-13T07:52:23;8.20;99.90
54168;DHT22;40072;50.958;3.592;2023-01-13T07:54:49;8.20;99.90
54168;DHT22;40072;50.958;3.592;2023-01-13T07:57:14;8.20;99.90
54168;DHT22;40072;50.958;3.592;2023-01-13T07:59:40;8.20;99.90
54168;DHT22;40072;50.958;3.592;2023-01-13T08:02:10;8.20;99.90
54168;DHT22;40072;50.958;3.592;2023-01-13T08:04:36;8.20;99.90
54168;DHT22;40072;50.958;3.592;2023-01-13T08:07:03;8.30;99.90
54168;DHT22;40072;50.958;3.592;2023-01-13T08:09:29;8.20;99.90
54168;DHT22;40072;50.958;3.592;2023-01-13T08:11:54;8.20;99.90
54168;DHT22;40072;50.958;3.592;2023-01-13T08:14:40;8.20;99.90
54168;DHT22;40072;50.958;3.592;2023-01-13T08:17:07;8.20;99.90
54168;DHT22;40072;50.958;3.592;2023-01-13T08:19:33;8.20;99.90
54168;DHT22;40072;50.958;3.592;2023-01-13T08:21:58;8.20;99.90
54168;DHT22;40072;50.958;3.592;2023-01-13T08:24:24;8.20;99.90
54168;DHT22;40072;50.958;3.592;2023-01-13T08:26:50;8.20;99.90
54168;DHT22;40072;50.958;3.592;2023-01-13T08:29:16;8.30;99.90
54168;DHT22;40072;50.958;3.592;2023-01-13T08:31:41;8.40;99.90
54168;DHT22;40072;50.958;3.592;2023-01-13T08:34:07;8.70;99.90
54168;DHT22;40072;50.958;3.592;2023-01-13T08:36:33;8.80;99.90
54168;DHT22;40072;50.958;3.592;2023-01-13T08:38:58;9.00;99.90
54168;DHT22;40072;50.958;3.592;2023-01-13T08:41:24;9.10;99.90
54168;DHT22;40072;50.958;3.592;2023-01-13T08:44:08;9.20;99.90
54168;DHT22;40072;50.958;3.592;2023-01-13T08:46:35;9.00;99.90
54168;DHT22;40072;50.958;3.592;2023-01-13T08:49:01;8.90;99.90
54168;DHT22;40072;50.958;3.592;2023-01-13T08:51:27;8.70;99.90
54168;DHT22;40072;50.958;3.592;2023-01-13T08:53:52;8.60;99.90
54168;DHT22;40072;50.958;3.592;2023-01-13T08:56:18;8.60;99.90
54168;DHT22;40072;50.958;3.592;2023-01-13T08:58:44;8.60;99.90
54168;DHT22;40072;50.958;3.592;2023-01-13T09:01:12;8.70;99.90
54168;DHT22;40072;50.958;3.592;2023-01-13T09:03:39;8.70;99.90
54168;DHT22;40072;50.958;3.592;2023-01-13T09:06:06;8.90;99.90
54168;DHT22;40072;50.958;3.592;2023-01-13T09:08:32;9.00;99.90
54168;DHT22;40072;50.958;3.592;2023-01-13T09:10:58;9.10;99.90
54168;DHT22;40072;50.958;3.592;2023-01-13T09:13:24;9.10;99.90
54168;DHT22;40072;50.958;3.592;2023-01-13T09:15:50;9.10;99.90
54168;DHT22;40072;50.958;3.592;2023-01-13T09:18:20;9.10;99.90
54168;DHT22;40072;50.958;3.592;2023-01-13T09:20:46;9.10;99.90
54168;DHT22;40072;50.958;3.592;2023-01-13T09:23:11;9.10;99.90
54168;DHT22;40072;50.958;3.592;2023-01-13T09:25:38;9.10;99.90
54168;DHT22;40072;50.958;3.592;2023-01-13T09:28:04;9.20;99.90
54168;DHT22;40072;50.958;3.592;2023-01-13T09:30:30;9.20;99.90
54168;DHT22;40072;50.958;3.592;2023-01-13T09:32:59;9.20;99.90
54168;DHT22;40072;50.958;3.592;2023-01-13T09:35:43;9.30;99.90
54168;DHT22;40072;50.958;3.592;2023-01-13T09:38:09;9.50;99.90
54168;DHT22;40072;50.958;3.592;2023-01-13T09:40:37;9.70;99.90
54168;DHT22;40072;50.958;3.592;2023-01-13T09:43:17;10.00;99.90
54168;DHT22;40072;50.958;3.592;2023-01-13T09:46:23;10.00;99.90
54168;DHT22;40072;50.958;3.592;2023-01-13T09:49:38;10.00;99.90
54168;DHT22;40072;50.958;3.592;2023-01-13T09:52:23;10.10;99.90
54168;DHT22;40072;50.958;3.592;2023-01-13T09:55:09;10.10;99.90
54168;DHT22;40072;50.958;3.592;2023-01-13T09:57:37;10.00;99.90
54168;DHT22;40072;50.958;3.592;2023-01-13T10:00:23;9.90;99.90
54168;DHT22;40072;50.958;3.592;2023-01-13T10:05:37;10.00;99.90
54168;DHT22;40072;50.958;3.592;2023-01-13T10:08:10;10.00;99.90
54168;DHT22;40072;50.958;3.592;2023-01-13T10:10:57;10.00;99.90
54168;DHT22;40072;50.958;3.592;2023-01-13T10:13:27;9.90;99.90
54168;DHT22;40072;50.958;3.592;2023-01-13T10:19:05;9.60;99.90
54168;DHT22;40072;50.958;3.592;2023-01-13T10:21:43;9.50;99.90
54168;DHT22;40072;50.958;3.592;2023-01-13T10:24:20;9.50;99.90
54168;DHT22;40072;50.958;3.592;2023-01-13T10:26:57;9.60;99.90
54168;DHT22;40072;50.958;3.592;2023-01-13T10:29:27;9.60;99.90
54168;DHT22;40072;50.958;3.592;2023-01-13T10:31:55;9.60;99.90
54168;DHT22;40072;50.958;3.592;2023-01-13T10:34:22;9.60;99.90
54168;DHT22;40072;50.958;3.592;2023-01-13T10:36:57;9.70;99.90
54168;DHT22;40072;50.958;3.592;2023-01-13T10:39:25;9.70;99.90
54168;DHT22;40072;50.958;3.592;2023-01-13T10:42:05;9.80;99.90
54168;DHT22;40072;50.958;3.592;2023-01-13T10:44:31;9.90;99.90
54168;DHT22;40072;50.958;3.592;2023-01-13T10:47:22;10.00;99.90
54168;DHT22;40072;50.958;3.592;2023-01-13T10:52:40;9.80;99.90
54168;DHT22;40072;50.958;3.592;2023-01-13T10:57:51;9.50;99.90
54168;DHT22;40072;50.958;3.592;2023-01-13T11:00:32;9.40;99.90
54168;DHT22;40072;50.958;3.592;2023-01-13T11:03:17;9.40;99.90
54168;DHT22;40072;50.958;3.592;2023-01-13T11:05:48;9.40;99.90
54168;DHT22;40072;50.958;3.592;2023-01-13T11:08:21;9.40;99.90
54168;DHT22;40072;50.958;3.592;2023-01-13T11:10:48;9.50;99.90
54168;DHT22;40072;50.958;3.592;2023-01-13T11:13:30;9.70;99.90
54168;DHT22;40072;50.958;3.592;2023-01-13T11:16:15;9.90;99.90
54168;DHT22;40072;50.958;3.592;2023-01-13T11:18:54;10.00;99.90
54168;DHT22;40072;50.958;3.592;2023-01-13T11:21:38;10.00;99.90
54168;DHT22;40072;50.958;3.592;2023-01-13T11:26:53;10.10;99.90
54168;DHT22;40072;50.958;3.592;2023-01-13T11:29:52;10.10;99.90
54168;DHT22;40072;50.958;3.592;2023-01-13T11:32:22;10.00;99.90
54168;DHT22;40072;50.958;3.592;2023-01-13T11:35:04;9.90;99.90
54168;DHT22;40072;50.958;3.592;2023-01-13T11:37:40;9.90;99.90
54168;DHT22;40072;50.958;3.592;2023-01-13T11:40:26;9.90;99.90
54168;DHT22;40072;50.958;3.592;2023-01-13T11:45:45;10.10;99.90
54168;DHT22;40072;50.958;3.592;2023-01-13T11:48:14;10.20;99.90
54168;DHT22;40072;50.958;3.592;2023-01-13T11:50:46;10.10;99.90
54168;DHT22;40072;50.958;3.592;2023-01-13T11:56:12;10.10;99.90
54168;DHT22;40072;50.958;3.592;2023-01-13T12:02:12;10.10;99.90
54168;DHT22;40072;50.958;3.592;2023-01-13T12:04:48;10.10;99.90
54168;DHT22;40072;50.958;3.592;2023-01-13T12:12:50;10.10;99.90
54168;DHT22;40072;50.958;3.592;2023-01-13T12:21:05;10.20;99.90
54168;DHT22;40072;50.958;3.592;2023-01-13T12:23:52;10.20;99.90
54168;DHT22;40072;50.958;3.592;2023-01-13T12:26:19;10.40;99.90
54168;DHT22;40072;50.958;3.592;2023-01-13T12:31:36;10.80;99.90
54168;DHT22;40072;50.958;3.592;2023-01-13T12:42:53;10.70;99.90
54168;DHT22;40072;50.958;3.592;2023-01-13T12:45:38;10.50;99.90
54168;DHT22;40072;50.958;3.592;2023-01-13T12:48:05;10.50;99.90
54168;DHT22;40072;50.958;3.592;2023-01-13T12:55:42;10.50;99.90
54168;DHT22;40072;50.958;3.592;2023-01-13T13:01:04;10.30;99.90
54168;DHT22;40072;50.958;3.592;2023-01-13T13:03:35;10.40;99.90
54168;DHT22;40072;50.958;3.592;2023-01-13T13:06:30;10.20;99.90
54168;DHT22;40072;50.958;3.592;2023-01-13T13:09:05;10.30;99.90
54168;DHT22;40072;50.958;3.592;2023-01-13T13:11:45;10.30;99.90
54168;DHT22;40072;50.958;3.592;2023-01-13T13:19:45;10.40;99.90
54168;DHT22;40072;50.958;3.592;2023-01-13T13:30:08;10.40;99.90
54168;DHT22;40072;50.958;3.592;2023-01-13T13:41:34;10.70;99.90
54168;DHT22;40072;50.958;3.592;2023-01-13T13:44:24;11.40;99.90
54168;DHT22;40072;50.958;3.592;2023-01-13T13:47:09;12.10;99.90
54168;DHT22;40072;50.958;3.592;2023-01-13T13:49:51;12.40;99.90
54168;DHT22;40072;50.958;3.592;2023-01-13T13:52:35;12.20;99.90
54168;DHT22;40072;50.958;3.592;2023-01-13T13:55:16;12.40;99.90
54168;DHT22;40072;50.958;3.592;2023-01-13T13:57:47;12.90;99.90
54168;DHT22;40072;50.958;3.592;2023-01-13T14:02:47;13.00;99.90
54168;DHT22;40072;50.958;3.592;2023-01-13T14:05:21;12.60;99.90
54168;DHT22;40072;50.958;3.592;2023-01-13T14:07:56;12.30;99.90
54168;DHT22;40072;50.958;3.592;2023-01-13T14:10:29;12.30;99.90
54168;DHT22;40072;50.958;3.592;2023-01-13T14:12:55;12.30;99.90
54168;DHT22;40072;50.958;3.592;2023-01-13T14:15:33;12.20;99.90
54168;DHT22;40072;50.958;3.592;2023-01-13T14:18:04;12.10;99.90
54168;DHT22;40072;50.958;3.592;2023-01-13T14:20:31;11.90;99.90
54168;DHT22;40072;50.958;3.592;2023-01-13T14:22:59;11.90;99.90
54168;DHT22;40072;50.958;3.592;2023-01-13T14:25:29;11.90;99.90
54168;DHT22;40072;50.958;3.592;2023-01-13T14:27:56;11.90;99.90
54168;DHT22;40072;50.958;3.592;2023-01-13T14:30:26;11.70;99.90
54168;DHT22;40072;50.958;3.592;2023-01-13T14:32:53;11.80;99.90
54168;DHT22;40072;50.958;3.592;2023-01-13T14:35:19;11.60;99.90
54168;DHT22;40072;50.958;3.592;2023-01-13T14:37:45;11.60;99.90
54168;DHT22;40072;50.958;3.592;2023-01-13T14:42:59;11.70;99.90
54168;DHT22;40072;50.958;3.592;2023-01-13T14:45:25;11.60;99.90
54168;DHT22;40072;50.958;3.592;2023-01-13T14:47:52;11.70;99.90
54168;DHT22;40072;50.958;3.592;2023-01-13T14:50:20;11.70;99.90
54168;DHT22;40072;50.958;3.592;2023-01-13T14:52:53;11.80;99.90
54168;DHT22;40072;50.958;3.592;2023-01-13T14:55:34;11.40;99.90
54168;DHT22;40072;50.958;3.592;2023-01-13T14:58:26;11.20;99.90
54168;DHT22;40072;50.958;3.592;2023-01-13T15:03:52;10.60;99.90
54168;DHT22;40072;50.958;3.592;2023-01-13T15:06:25;10.40;99.90
54168;DHT22;40072;50.958;3.592;2023-01-13T15:08:51;10.30;99.90
54168;DHT22;40072;50.958;3.592;2023-01-13T15:11:24;10.30;99.90
54168;DHT22;40072;50.958;3.592;2023-01-13T15:13:59;10.20;99.90
54168;DHT22;40072;50.958;3.592;2023-01-13T15:16:28;10.30;99.90
54168;DHT22;40072;50.958;3.592;2023-01-13T15:18:57;10.30;99.90
54168;DHT22;40072;50.958;3.592;2023-01-13T15:21:23;10.30;99.90
54168;DHT22;40072;50.958;3.592;2023-01-13T15:23:49;10.20;99.90
54168;DHT22;40072;50.958;3.592;2023-01-13T15:26:23;10.10;99.90
54168;DHT22;40072;50.958;3.592;2023-01-13T15:28:50;10.00;99.90
54168;DHT22;40072;50.958;3.592;2023-01-13T15:31:16;9.90;99.90
54168;DHT22;40072;50.958;3.592;2023-01-13T15:33:42;9.90;99.90
54168;DHT22;40072;50.958;3.592;2023-01-13T15:36:29;9.90;99.90
54168;DHT22;40072;50.958;3.592;2023-01-13T15:38:56;9.80;99.90
54168;DHT22;40072;50.958;3.592;2023-01-13T15:41:22;9.60;99.90
54168;DHT22;40072;50.958;3.592;2023-01-13T15:44:10;9.60;99.90
54168;DHT22;40072;50.958;3.592;2023-01-13T15:46:55;9.60;99.90
54168;DHT22;40072;50.958;3.592;2023-01-13T15:49:29;9.50;99.90
54168;DHT22;40072;50.958;3.592;2023-01-13T15:52:22;9.40;99.90
54168;DHT22;40072;50.958;3.592;2023-01-13T15:54:49;9.30;99.90
54168;DHT22;40072;50.958;3.592;2023-01-13T15:59:45;9.20;99.90
54168;DHT22;40072;50.958;3.592;2023-01-13T16:02:11;9.20;99.90
54168;DHT22;40072;50.958;3.592;2023-01-13T16:04:40;9.20;99.90
54168;DHT22;40072;50.958;3.592;2023-01-13T16:07:12;9.20;99.90
54168;DHT22;40072;50.958;3.592;2023-01-13T16:09:38;9.10;99.90
54168;DHT22;40072;50.958;3.592;2023-01-13T16:12:03;9.10;99.90
54168;DHT22;40072;50.958;3.592;2023-01-13T16:14:29;9.10;99.90
54168;DHT22;40072;50.958;3.592;2023-01-13T16:16:55;9.00;99.90
54168;DHT22;40072;50.958;3.592;2023-01-13T16:19:20;8.90;99.90
54168;DHT22;40072;50.958;3.592;2023-01-13T16:21:46;9.00;99.90
54168;DHT22;40072;50.958;3.592;2023-01-13T16:24:12;9.00;99.90
54168;DHT22;40072;50.958;3.592;2023-01-13T16:26:37;8.90;99.90
54168;DHT22;40072;50.958;3.592;2023-01-13T16:29:03;8.90;99.90
54168;DHT22;40072;50.958;3.592;2023-01-13T16:31:32;8.80;99.90
54168;DHT22;40072;50.958;3.592;2023-01-13T16:33:59;8.80;99.90
54168;DHT22;40072;50.958;3.592;2023-01-13T16:36:28;8.80;99.90
54168;DHT22;40072;50.958;3.592;2023-01-13T16:38:54;8.80;99.90
54168;DHT22;40072;50.958;3.592;2023-01-13T16:41:20;8.70;99.90
54168;DHT22;40072;50.958;3.592;2023-01-13T16:43:47;8.70;99.90
54168;DHT22;40072;50.958;3.592;2023-01-13T16:46:23;8.70;99.90
54168;DHT22;40072;50.958;3.592;2023-01-13T16:48:50;8.70;99.90
54168;DHT22;40072;50.958;3.592;2023-01-13T16:51:18;8.70;99.90
54168;DHT22;40072;50.958;3.592;2023-01-13T16:53:44;8.80;99.90
54168;DHT22;40072;50.958;3.592;2023-01-13T16:58:41;8.70;99.90
54168;DHT22;40072;50.958;3.592;2023-01-13T17:01:16;8.70;99.90
54168;DHT22;40072;50.958;3.592;2023-01-13T17:03:42;8.80;99.90
54168;DHT22;40072;50.958;3.592;2023-01-13T17:06:10;8.80;99.90
54168;DHT22;40072;50.958;3.592;2023-01-13T17:08:35;8.80;99.90
54168;DHT22;40072;50.958;3.592;2023-01-13T17:11:01;8.80;99.90
54168;DHT22;40072;50.958;3.592;2023-01-13T17:13:27;8.80;99.90
54168;DHT22;40072;50.958;3.592;2023-01-13T17:15:52;8.80;99.90
54168;DHT22;40072;50.958;3.592;2023-01-13T17:18:18;8.70;99.90
54168;DHT22;40072;50.958;3.592;2023-01-13T17:20:44;8.80;99.90
54168;DHT22;40072;50.958;3.592;2023-01-13T17:23:09;8.70;99.90
54168;DHT22;40072;50.958;3.592;2023-01-13T17:25:35;8.70;99.90
54168;DHT22;40072;50.958;3.592;2023-01-13T17:28:01;8.70;99.90
54168;DHT22;40072;50.958;3.592;2023-01-13T17:30:26;8.70;99.90
54168;DHT22;40072;50.958;3.592;2023-01-13T17:32:52;8.60;99.90
54168;DHT22;40072;50.958;3.592;2023-01-13T17:35:18;8.70;99.90
54168;DHT22;40072;50.958;3.592;2023-01-13T17:37:49;8.60;99.90
54168;DHT22;40072;50.958;3.592;2023-01-13T17:40:15;8.60;99.90
54168;DHT22;40072;50.958;3.592;2023-01-13T17:42:41;8.60;99.90
54168;DHT22;40072;50.958;3.592;2023-01-13T17:45:07;8.60;99.90
54168;DHT22;40072;50.958;3.592;2023-01-13T17:47:36;8.60;99.90
54168;DHT22;40072;50.958;3.592;2023-01-13T17:50:02;8.60;99.90
54168;DHT22;40072;50.958;3.592;2023-01-13T17:52:29;8.70;99.90
54168;DHT22;40072;50.958;3.592;2023-01-13T17:54:55;8.60;99.90
54168;DHT22;40072;50.958;3.592;2023-01-13T17:57:20;8.60;99.90
54168;DHT22;40072;50.958;3.592;2023-01-13T17:59:46;8.60;99.90
54168;DHT22;40072;50.958;3.592;2023-01-13T18:02:12;8.60;99.90
54168;DHT22;40072;50.958;3.592;2023-01-13T18:04:38;8.70;99.90
54168;DHT22;40072;50.958;3.592;2023-01-13T18:07:04;8.70;99.90
54168;DHT22;40072;50.958;3.592;2023-01-13T18:09:31;8.70;99.90
54168;DHT22;40072;50.958;3.592;2023-01-13T18:11:58;8.70;99.90
54168;DHT22;40072;50.958;3.592;2023-01-13T18:14:23;8.70;99.90
54168;DHT22;40072;50.958;3.592;2023-01-13T18:16:50;8.70;99.90
54168;DHT22;40072;50.958;3.592;2023-01-13T18:19:16;8.70;99.90
54168;DHT22;40072;50.958;3.592;2023-01-13T18:22:00;8.60;99.90
54168;DHT22;40072;50.958;3.592;2023-01-13T18:24:44;8.50;99.90